Terminal Aerodrome Forecast
Issued by NWS Charleston, SC

Home | Current Version | Previous Version | Text Only | Print | Product List | Glossary On
Versions: 1 2 3 4 5 6 7 8 9 10 11 12 13 14 15 16 17 18 19 20 21
000
FTUS42 KCHS 220500
TAFCHS
TAF
KCHS 220534Z 2206/2306 25005KT P6SM SCT090
     FM221500 VRB03KT P6SM SCT040 SCT100
     FM221900 02007KT P6SM VCSH BKN040 PROB30 2220/2224 4SM -TSRA BR
      BKN040CB
     FM230000 01005KT P6SM -SHRA SCT015 BKN080=

USA.gov is the U.S. government's official web portal to all federal, state and local government web resources and services.